sensor_id;sensor_type;location;lat;lon;timestamp;temperature;humidity
8002;DHT22;4046;48.774;8.732;2022-10-31T00:02:14;21.60;99.90
8002;DHT22;4046;48.774;8.732;2022-10-31T00:04:41;21.60;99.90
8002;DHT22;4046;48.774;8.732;2022-10-31T00:07:07;21.60;99.90
8002;DHT22;4046;48.774;8.732;2022-10-31T00:09:33;21.60;99.90
8002;DHT22;4046;48.774;8.732;2022-10-31T00:11:59;21.50;99.90
8002;DHT22;4046;48.774;8.732;2022-10-31T00:14:25;21.60;99.90
8002;DHT22;4046;48.774;8.732;2022-10-31T00:16:51;21.50;99.90
8002;DHT22;4046;48.774;8.732;2022-10-31T00:19:18;21.50;99.90
8002;DHT22;4046;48.774;8.732;2022-10-31T00:21:44;21.60;99.90
8002;DHT22;4046;48.774;8.732;2022-10-31T00:24:10;21.50;99.90
8002;DHT22;4046;48.774;8.732;2022-10-31T00:26:36;21.50;99.90
8002;DHT22;4046;48.774;8.732;2022-10-31T00:29:03;21.50;99.90
8002;DHT22;4046;48.774;8.732;2022-10-31T00:31:29;21.50;99.90
8002;DHT22;4046;48.774;8.732;2022-10-31T00:33:57;21.60;99.90
8002;DHT22;4046;48.774;8.732;2022-10-31T00:36:23;21.50;99.90
8002;DHT22;4046;48.774;8.732;2022-10-31T00:38:49;21.50;99.90
8002;DHT22;4046;48.774;8.732;2022-10-31T00:41:17;21.50;99.90
8002;DHT22;4046;48.774;8.732;2022-10-31T00:43:44;21.50;99.90
8002;DHT22;4046;48.774;8.732;2022-10-31T00:46:11;21.50;99.90
8002;DHT22;4046;48.774;8.732;2022-10-31T00:48:38;21.50;99.90
8002;DHT22;4046;48.774;8.732;2022-10-31T00:51:04;21.50;99.90
8002;DHT22;4046;48.774;8.732;2022-10-31T00:53:30;21.50;99.90
8002;DHT22;4046;48.774;8.732;2022-10-31T00:55:57;21.50;99.90
8002;DHT22;4046;48.774;8.732;2022-10-31T00:58:23;21.50;99.90
8002;DHT22;4046;48.774;8.732;2022-10-31T01:00:49;21.50;99.90
8002;DHT22;4046;48.774;8.732;2022-10-31T01:03:27;21.50;99.90
8002;DHT22;4046;48.774;8.732;2022-10-31T01:06:06;21.50;99.90
8002;DHT22;4046;48.774;8.732;2022-10-31T01:08:33;21.50;99.90
8002;DHT22;4046;48.774;8.732;2022-10-31T01:11:00;21.40;99.90
8002;DHT22;4046;48.774;8.732;2022-10-31T01:13:26;21.50;99.90
8002;DHT22;4046;48.774;8.732;2022-10-31T01:15:57;21.40;99.90
8002;DHT22;4046;48.774;8.732;2022-10-31T01:18:24;21.40;99.90
8002;DHT22;4046;48.774;8.732;2022-10-31T01:21:05;21.50;99.90
8002;DHT22;4046;48.774;8.732;2022-10-31T01:23:32;21.50;99.90
8002;DHT22;4046;48.774;8.732;2022-10-31T01:26:00;21.40;99.90
8002;DHT22;4046;48.774;8.732;2022-10-31T01:28:26;21.50;99.90
8002;DHT22;4046;48.774;8.732;2022-10-31T01:30:52;21.50;99.90
8002;DHT22;4046;48.774;8.732;2022-10-31T01:33:19;21.50;99.90
8002;DHT22;4046;48.774;8.732;2022-10-31T01:35:45;21.50;99.90
8002;DHT22;4046;48.774;8.732;2022-10-31T01:38:11;21.40;99.90
8002;DHT22;4046;48.774;8.732;2022-10-31T01:40:37;21.40;99.90
8002;DHT22;4046;48.774;8.732;2022-10-31T01:43:03;21.40;99.90
8002;DHT22;4046;48.774;8.732;2022-10-31T01:45:30;21.40;99.90
8002;DHT22;4046;48.774;8.732;2022-10-31T01:47:56;21.40;99.90
8002;DHT22;4046;48.774;8.732;2022-10-31T01:50:32;21.40;99.90
8002;DHT22;4046;48.774;8.732;2022-10-31T01:53:00;21.40;99.90
8002;DHT22;4046;48.774;8.732;2022-10-31T01:55:30;21.40;99.90
8002;DHT22;4046;48.774;8.732;2022-10-31T01:58:08;21.50;99.90
8002;DHT22;4046;48.774;8.732;2022-10-31T02:00:34;21.40;99.90
8002;DHT22;4046;48.774;8.732;2022-10-31T02:03:01;21.40;99.90
8002;DHT22;4046;48.774;8.732;2022-10-31T02:05:29;21.40;99.90
8002;DHT22;4046;48.774;8.732;2022-10-31T02:08:23;21.40;99.90
8002;DHT22;4046;48.774;8.732;2022-10-31T02:10:50;21.40;99.90
8002;DHT22;4046;48.774;8.732;2022-10-31T02:13:18;21.40;99.90
8002;DHT22;4046;48.774;8.732;2022-10-31T02:15:48;21.40;99.90
8002;DHT22;4046;48.774;8.732;2022-10-31T02:18:15;21.40;99.90
8002;DHT22;4046;48.774;8.732;2022-10-31T02:20:56;21.40;99.90
8002;DHT22;4046;48.774;8.732;2022-10-31T02:32:11;21.40;99.90
8002;DHT22;4046;48.774;8.732;2022-10-31T02:34:58;21.50;99.90
8002;DHT22;4046;48.774;8.732;2022-10-31T02:37:37;21.40;99.90
8002;DHT22;4046;48.774;8.732;2022-10-31T02:40:17;21.40;99.90
8002;DHT22;4046;48.774;8.732;2022-10-31T02:42:56;21.40;99.90
8002;DHT22;4046;48.774;8.732;2022-10-31T02:45:32;21.40;99.90
8002;DHT22;4046;48.774;8.732;2022-10-31T02:48:08;21.40;99.90
8002;DHT22;4046;48.774;8.732;2022-10-31T02:50:39;21.40;99.90
8002;DHT22;4046;48.774;8.732;2022-10-31T02:53:06;21.40;99.90
8002;DHT22;4046;48.774;8.732;2022-10-31T03:00:29;21.40;99.90
8002;DHT22;4046;48.774;8.732;2022-10-31T03:06:27;21.40;99.90
8002;DHT22;4046;48.774;8.732;2022-10-31T03:11:49;21.40;99.90
8002;DHT22;4046;48.774;8.732;2022-10-31T03:14:23;21.40;99.90
8002;DHT22;4046;48.774;8.732;2022-10-31T03:16:53;21.30;99.90
8002;DHT22;4046;48.774;8.732;2022-10-31T03:21:51;21.30;99.90
8002;DHT22;4046;48.774;8.732;2022-10-31T03:24:20;21.40;99.90
8002;DHT22;4046;48.774;8.732;2022-10-31T03:26:52;21.40;99.90
8002;DHT22;4046;48.774;8.732;2022-10-31T03:29:22;21.30;99.90
8002;DHT22;4046;48.774;8.732;2022-10-31T03:32:08;21.30;99.90
8002;DHT22;4046;48.774;8.732;2022-10-31T03:34:37;21.30;99.90
8002;DHT22;4046;48.774;8.732;2022-10-31T03:37:08;21.30;99.90
8002;DHT22;4046;48.774;8.732;2022-10-31T03:39:36;21.30;99.90
8002;DHT22;4046;48.774;8.732;2022-10-31T03:42:07;21.30;99.90
8002;DHT22;4046;48.774;8.732;2022-10-31T03:44:35;21.30;99.90
8002;DHT22;4046;48.774;8.732;2022-10-31T03:47:03;21.30;99.90
8002;DHT22;4046;48.774;8.732;2022-10-31T03:49:31;21.30;99.90
8002;DHT22;4046;48.774;8.732;2022-10-31T03:54:46;21.30;99.90
8002;DHT22;4046;48.774;8.732;2022-10-31T03:57:32;21.30;99.90
8002;DHT22;4046;48.774;8.732;2022-10-31T04:00:06;21.30;99.90
8002;DHT22;4046;48.774;8.732;2022-10-31T04:02:35;21.20;99.90
8002;DHT22;4046;48.774;8.732;2022-10-31T04:05:06;21.20;99.90
8002;DHT22;4046;48.774;8.732;2022-10-31T04:07:37;21.20;99.90
8002;DHT22;4046;48.774;8.732;2022-10-31T04:10:08;21.20;99.90
8002;DHT22;4046;48.774;8.732;2022-10-31T04:12:36;21.20;99.90
8002;DHT22;4046;48.774;8.732;2022-10-31T04:15:05;21.20;99.90
8002;DHT22;4046;48.774;8.732;2022-10-31T04:17:35;21.20;99.90
8002;DHT22;4046;48.774;8.732;2022-10-31T04:20:03;21.20;99.90
8002;DHT22;4046;48.774;8.732;2022-10-31T04:22:30;21.20;99.90
8002;DHT22;4046;48.774;8.732;2022-10-31T04:24:56;21.20;99.90
8002;DHT22;4046;48.774;8.732;2022-10-31T04:27:22;21.20;99.90
8002;DHT22;4046;48.774;8.732;2022-10-31T04:29:48;21.20;99.90
8002;DHT22;4046;48.774;8.732;2022-10-31T04:32:14;21.20;99.90
8002;DHT22;4046;48.774;8.732;2022-10-31T04:34:40;21.20;99.90
8002;DHT22;4046;48.774;8.732;2022-10-31T04:37:07;21.20;99.90
8002;DHT22;4046;48.774;8.732;2022-10-31T04:39:33;21.20;99.90
8002;DHT22;4046;48.774;8.732;2022-10-31T04:41:59;21.20;99.90
8002;DHT22;4046;48.774;8.732;2022-10-31T04:44:25;21.20;99.90
8002;DHT22;4046;48.774;8.732;2022-10-31T04:46:51;21.20;99.90
8002;DHT22;4046;48.774;8.732;2022-10-31T04:49:17;21.20;99.90
8002;DHT22;4046;48.774;8.732;2022-10-31T04:51:44;21.20;99.90
8002;DHT22;4046;48.774;8.732;2022-10-31T04:54:10;21.20;99.90
8002;DHT22;4046;48.774;8.732;2022-10-31T04:56:36;21.20;99.90
8002;DHT22;4046;48.774;8.732;2022-10-31T04:59:02;21.20;99.90
8002;DHT22;4046;48.774;8.732;2022-10-31T05:01:28;21.20;99.90
8002;DHT22;4046;48.774;8.732;2022-10-31T05:03:55;21.20;99.90
8002;DHT22;4046;48.774;8.732;2022-10-31T05:06:21;21.20;99.90
8002;DHT22;4046;48.774;8.732;2022-10-31T05:08:47;21.10;99.90
8002;DHT22;4046;48.774;8.732;2022-10-31T05:11:13;21.10;99.90
8002;DHT22;4046;48.774;8.732;2022-10-31T05:13:39;21.10;99.90
8002;DHT22;4046;48.774;8.732;2022-10-31T05:16:06;21.10;99.90
8002;DHT22;4046;48.774;8.732;2022-10-31T05:18:32;21.10;99.90
8002;DHT22;4046;48.774;8.732;2022-10-31T05:20:58;21.10;99.90
8002;DHT22;4046;48.774;8.732;2022-10-31T05:23:24;21.10;99.90
8002;DHT22;4046;48.774;8.732;2022-10-31T05:25:50;21.10;99.90
8002;DHT22;4046;48.774;8.732;2022-10-31T05:28:17;21.10;99.90
8002;DHT22;4046;48.774;8.732;2022-10-31T05:30:43;21.10;99.90
8002;DHT22;4046;48.774;8.732;2022-10-31T05:33:09;21.10;99.90
8002;DHT22;4046;48.774;8.732;2022-10-31T05:35:35;21.10;99.90
8002;DHT22;4046;48.774;8.732;2022-10-31T05:38:01;21.10;99.90
8002;DHT22;4046;48.774;8.732;2022-10-31T05:40:28;21.10;99.90
8002;DHT22;4046;48.774;8.732;2022-10-31T05:42:55;21.10;99.90
8002;DHT22;4046;48.774;8.732;2022-10-31T05:45:22;21.10;99.90
8002;DHT22;4046;48.774;8.732;2022-10-31T05:47:56;21.10;99.90
8002;DHT22;4046;48.774;8.732;2022-10-31T05:50:23;21.00;99.90
8002;DHT22;4046;48.774;8.732;2022-10-31T05:53:01;21.00;99.90
8002;DHT22;4046;48.774;8.732;2022-10-31T05:55:27;21.10;99.90
8002;DHT22;4046;48.774;8.732;2022-10-31T05:57:54;21.00;99.90
8002;DHT22;4046;48.774;8.732;2022-10-31T06:00:22;21.00;99.90
8002;DHT22;4046;48.774;8.732;2022-10-31T06:02:48;21.00;99.90
8002;DHT22;4046;48.774;8.732;2022-10-31T06:05:15;21.00;99.90
8002;DHT22;4046;48.774;8.732;2022-10-31T06:07:42;21.00;99.90
8002;DHT22;4046;48.774;8.732;2022-10-31T06:10:09;21.00;99.90
8002;DHT22;4046;48.774;8.732;2022-10-31T06:12:35;21.00;99.90
8002;DHT22;4046;48.774;8.732;2022-10-31T06:15:07;21.00;99.90
8002;DHT22;4046;48.774;8.732;2022-10-31T06:17:34;21.00;99.90
8002;DHT22;4046;48.774;8.732;2022-10-31T06:20:01;21.10;99.90
8002;DHT22;4046;48.774;8.732;2022-10-31T06:22:27;21.00;99.90
8002;DHT22;4046;48.774;8.732;2022-10-31T06:24:54;21.00;99.90
8002;DHT22;4046;48.774;8.732;2022-10-31T06:27:20;21.00;99.90
8002;DHT22;4046;48.774;8.732;2022-10-31T06:29:46;21.00;99.90
8002;DHT22;4046;48.774;8.732;2022-10-31T06:32:13;21.00;99.90
8002;DHT22;4046;48.774;8.732;2022-10-31T06:34:40;21.00;99.90
8002;DHT22;4046;48.774;8.732;2022-10-31T06:37:08;21.00;99.90
8002;DHT22;4046;48.774;8.732;2022-10-31T06:39:34;21.00;99.90
8002;DHT22;4046;48.774;8.732;2022-10-31T06:42:01;21.00;99.90
8002;DHT22;4046;48.774;8.732;2022-10-31T06:44:27;21.00;99.90
8002;DHT22;4046;48.774;8.732;2022-10-31T06:46:54;21.00;99.90
8002;DHT22;4046;48.774;8.732;2022-10-31T06:49:20;21.00;99.90
8002;DHT22;4046;48.774;8.732;2022-10-31T06:51:50;21.00;99.90
8002;DHT22;4046;48.774;8.732;2022-10-31T06:54:16;21.00;99.90
8002;DHT22;4046;48.774;8.732;2022-10-31T06:56:45;21.00;99.90
8002;DHT22;4046;48.774;8.732;2022-10-31T06:59:13;21.00;99.90
8002;DHT22;4046;48.774;8.732;2022-10-31T07:01:39;21.00;99.90
8002;DHT22;4046;48.774;8.732;2022-10-31T07:04:05;21.00;99.90
8002;DHT22;4046;48.774;8.732;2022-10-31T07:06:32;21.00;99.90
8002;DHT22;4046;48.774;8.732;2022-10-31T07:08:58;21.00;99.90
8002;DHT22;4046;48.774;8.732;2022-10-31T07:11:24;21.00;99.90
8002;DHT22;4046;48.774;8.732;2022-10-31T07:13:50;21.00;99.90
8002;DHT22;4046;48.774;8.732;2022-10-31T07:16:16;21.00;99.90
8002;DHT22;4046;48.774;8.732;2022-10-31T07:18:42;21.00;99.90
8002;DHT22;4046;48.774;8.732;2022-10-31T07:21:09;21.00;99.90
8002;DHT22;4046;48.774;8.732;2022-10-31T07:23:35;21.00;99.90
8002;DHT22;4046;48.774;8.732;2022-10-31T07:26:01;21.10;99.90
8002;DHT22;4046;48.774;8.732;2022-10-31T07:28:27;21.10;99.90
8002;DHT22;4046;48.774;8.732;2022-10-31T07:30:55;21.10;99.90
8002;DHT22;4046;48.774;8.732;2022-10-31T07:33:23;21.10;99.90
8002;DHT22;4046;48.774;8.732;2022-10-31T07:35:49;21.10;99.90
8002;DHT22;4046;48.774;8.732;2022-10-31T07:38:15;21.10;99.90
8002;DHT22;4046;48.774;8.732;2022-10-31T07:40:42;21.10;99.90
8002;DHT22;4046;48.774;8.732;2022-10-31T07:43:10;21.10;99.90
8002;DHT22;4046;48.774;8.732;2022-10-31T07:45:37;21.20;99.90
8002;DHT22;4046;48.774;8.732;2022-10-31T07:48:03;21.10;99.90
8002;DHT22;4046;48.774;8.732;2022-10-31T07:50:31;21.10;99.90
8002;DHT22;4046;48.774;8.732;2022-10-31T07:53:10;21.10;99.90
8002;DHT22;4046;48.774;8.732;2022-10-31T07:55:37;21.20;99.90
8002;DHT22;4046;48.774;8.732;2022-10-31T07:58:05;21.10;99.90
8002;DHT22;4046;48.774;8.732;2022-10-31T08:00:33;21.20;99.90
8002;DHT22;4046;48.774;8.732;2022-10-31T08:03:01;21.20;99.90
8002;DHT22;4046;48.774;8.732;2022-10-31T08:05:28;21.20;99.90
8002;DHT22;4046;48.774;8.732;2022-10-31T08:07:54;21.20;99.90
8002;DHT22;4046;48.774;8.732;2022-10-31T08:10:21;21.20;99.90
8002;DHT22;4046;48.774;8.732;2022-10-31T08:12:55;21.30;99.90
8002;DHT22;4046;48.774;8.732;2022-10-31T08:15:21;21.30;99.90
8002;DHT22;4046;48.774;8.732;2022-10-31T08:17:47;21.30;99.90
8002;DHT22;4046;48.774;8.732;2022-10-31T08:20:13;21.30;99.90
8002;DHT22;4046;48.774;8.732;2022-10-31T08:22:40;21.30;99.90
8002;DHT22;4046;48.774;8.732;2022-10-31T08:25:06;21.40;99.90
8002;DHT22;4046;48.774;8.732;2022-10-31T08:27:32;21.40;99.90
8002;DHT22;4046;48.774;8.732;2022-10-31T08:29:58;21.40;99.90
8002;DHT22;4046;48.774;8.732;2022-10-31T08:32:25;21.50;99.90
8002;DHT22;4046;48.774;8.732;2022-10-31T08:34:51;21.50;99.90
8002;DHT22;4046;48.774;8.732;2022-10-31T08:37:17;21.50;99.90
8002;DHT22;4046;48.774;8.732;2022-10-31T08:39:48;21.60;99.90
8002;DHT22;4046;48.774;8.732;2022-10-31T08:42:14;21.60;99.90
8002;DHT22;4046;48.774;8.732;2022-10-31T08:44:41;21.60;99.90
8002;DHT22;4046;48.774;8.732;2022-10-31T08:47:07;21.60;99.90
8002;DHT22;4046;48.774;8.732;2022-10-31T08:49:33;21.60;99.90
8002;DHT22;4046;48.774;8.732;2022-10-31T08:51:59;21.70;99.90
8002;DHT22;4046;48.774;8.732;2022-10-31T08:54:26;21.70;99.90
8002;DHT22;4046;48.774;8.732;2022-10-31T08:56:55;21.80;99.90
8002;DHT22;4046;48.774;8.732;2022-10-31T08:59:21;21.80;99.90
8002;DHT22;4046;48.774;8.732;2022-10-31T09:01:48;21.90;99.90
8002;DHT22;4046;48.774;8.732;2022-10-31T09:04:14;22.00;99.90
8002;DHT22;4046;48.774;8.732;2022-10-31T09:06:40;22.00;99.90
8002;DHT22;4046;48.774;8.732;2022-10-31T09:09:06;22.10;99.90
8002;DHT22;4046;48.774;8.732;2022-10-31T09:11:33;22.10;99.90
8002;DHT22;4046;48.774;8.732;2022-10-31T09:14:00;22.20;99.90
8002;DHT22;4046;48.774;8.732;2022-10-31T09:16:26;22.40;99.90
8002;DHT22;4046;48.774;8.732;2022-10-31T09:18:53;22.50;99.90
8002;DHT22;4046;48.774;8.732;2022-10-31T09:21:19;22.60;99.90
8002;DHT22;4046;48.774;8.732;2022-10-31T09:23:45;22.70;99.90
8002;DHT22;4046;48.774;8.732;2022-10-31T09:26:11;22.90;99.90
8002;DHT22;4046;48.774;8.732;2022-10-31T09:28:37;23.30;99.90
8002;DHT22;4046;48.774;8.732;2022-10-31T09:31:04;23.60;99.90
8002;DHT22;4046;48.774;8.732;2022-10-31T09:33:30;23.70;99.90
8002;DHT22;4046;48.774;8.732;2022-10-31T09:35:58;23.60;99.90
8002;DHT22;4046;48.774;8.732;2022-10-31T09:38:24;23.60;99.90
8002;DHT22;4046;48.774;8.732;2022-10-31T09:43:49;23.60;99.90
8002;DHT22;4046;48.774;8.732;2022-10-31T09:52:02;23.90;99.90
8002;DHT22;4046;48.774;8.732;2022-10-31T09:54:44;24.00;99.90
8002;DHT22;4046;48.774;8.732;2022-10-31T09:57:15;24.10;99.90
8002;DHT22;4046;48.774;8.732;2022-10-31T09:59:43;24.30;99.90
8002;DHT22;4046;48.774;8.732;2022-10-31T10:04:51;24.30;99.90
8002;DHT22;4046;48.774;8.732;2022-10-31T10:07:37;24.30;99.90
8002;DHT22;4046;48.774;8.732;2022-10-31T10:12:59;23.80;99.90
8002;DHT22;4046;48.774;8.732;2022-10-31T10:21:59;23.40;99.90
8002;DHT22;4046;48.774;8.732;2022-10-31T10:29:37;22.90;99.90
8002;DHT22;4046;48.774;8.732;2022-10-31T10:32:23;22.70;99.90
8002;DHT22;4046;48.774;8.732;2022-10-31T10:35:21;22.60;99.90
8002;DHT22;4046;48.774;8.732;2022-10-31T10:37:46;22.50;99.90
8002;DHT22;4046;48.774;8.732;2022-10-31T10:40:17;22.30;99.90
8002;DHT22;4046;48.774;8.732;2022-10-31T10:42:50;22.30;99.90
8002;DHT22;4046;48.774;8.732;2022-10-31T10:45:40;22.20;99.90
8002;DHT22;4046;48.774;8.732;2022-10-31T10:48:31;22.10;99.90
8002;DHT22;4046;48.774;8.732;2022-10-31T10:50:59;22.10;99.90
8002;DHT22;4046;48.774;8.732;2022-10-31T10:53:39;22.00;99.90
8002;DHT22;4046;48.774;8.732;2022-10-31T10:56:46;22.00;99.90
8002;DHT22;4046;48.774;8.732;2022-10-31T10:59:20;22.00;99.90
8002;DHT22;4046;48.774;8.732;2022-10-31T11:01:49;21.90;99.90
8002;DHT22;4046;48.774;8.732;2022-10-31T11:07:07;21.90;99.90
8002;DHT22;4046;48.774;8.732;2022-10-31T11:09:35;21.80;99.90
8002;DHT22;4046;48.774;8.732;2022-10-31T11:12:19;21.80;99.90
8002;DHT22;4046;48.774;8.732;2022-10-31T11:14:51;21.80;99.90
8002;DHT22;4046;48.774;8.732;2022-10-31T11:17:37;21.70;99.90
8002;DHT22;4046;48.774;8.732;2022-10-31T11:22:44;21.80;99.90
8002;DHT22;4046;48.774;8.732;2022-10-31T11:27:46;21.70;99.90
8002;DHT22;4046;48.774;8.732;2022-10-31T11:30:14;21.70;99.90
8002;DHT22;4046;48.774;8.732;2022-10-31T11:32:48;21.70;99.90
8002;DHT22;4046;48.774;8.732;2022-10-31T11:35:18;21.70;99.90
8002;DHT22;4046;48.774;8.732;2022-10-31T11:37:48;21.70;99.90
8002;DHT22;4046;48.774;8.732;2022-10-31T11:40:16;21.70;99.90
8002;DHT22;4046;48.774;8.732;2022-10-31T11:42:44;21.70;99.90
8002;DHT22;4046;48.774;8.732;2022-10-31T11:45:33;21.70;99.90
8002;DHT22;4046;48.774;8.732;2022-10-31T11:48:01;21.70;99.90
8002;DHT22;4046;48.774;8.732;2022-10-31T11:50:40;21.60;99.90
8002;DHT22;4046;48.774;8.732;2022-10-31T11:53:17;21.70;99.90
8002;DHT22;4046;48.774;8.732;2022-10-31T11:55:45;21.70;99.90
8002;DHT22;4046;48.774;8.732;2022-10-31T11:58:23;21.70;99.90
8002;DHT22;4046;48.774;8.732;2022-10-31T12:00:53;21.70;99.90
8002;DHT22;4046;48.774;8.732;2022-10-31T12:06:13;21.70;99.90
8002;DHT22;4046;48.774;8.732;2022-10-31T12:08:42;21.70;99.90
8002;DHT22;4046;48.774;8.732;2022-10-31T12:11:17;21.70;99.90
8002;DHT22;4046;48.774;8.732;2022-10-31T12:16:56;21.60;99.90
8002;DHT22;4046;48.774;8.732;2022-10-31T12:22:33;21.60;99.90
8002;DHT22;4046;48.774;8.732;2022-10-31T12:25:28;21.60;99.90
8002;DHT22;4046;48.774;8.732;2022-10-31T12:31:10;21.60;99.90
8002;DHT22;4046;48.774;8.732;2022-10-31T12:34:21;21.60;99.90
8002;DHT22;4046;48.774;8.732;2022-10-31T12:42:55;21.50;99.90
8002;DHT22;4046;48.774;8.732;2022-10-31T12:45:31;21.50;99.90
8002;DHT22;4046;48.774;8.732;2022-10-31T12:56:58;21.50;99.90
8002;DHT22;4046;48.774;8.732;2022-10-31T12:59:52;21.40;99.90
8002;DHT22;4046;48.774;8.732;2022-10-31T13:02:32;21.40;99.90
8002;DHT22;4046;48.774;8.732;2022-10-31T13:05:17;21.40;99.90
8002;DHT22;4046;48.774;8.732;2022-10-31T13:07:52;21.40;99.90
8002;DHT22;4046;48.774;8.732;2022-10-31T13:10:24;21.50;99.90
8002;DHT22;4046;48.774;8.732;2022-10-31T13:12:54;21.50;99.90
8002;DHT22;4046;48.774;8.732;2022-10-31T13:15:25;21.50;99.90
8002;DHT22;4046;48.774;8.732;2022-10-31T13:18:24;21.50;99.90
8002;DHT22;4046;48.774;8.732;2022-10-31T13:20:51;21.60;99.90
8002;DHT22;4046;48.774;8.732;2022-10-31T13:23:29;21.60;99.90
8002;DHT22;4046;48.774;8.732;2022-10-31T13:25:58;21.60;99.90
8002;DHT22;4046;48.774;8.732;2022-10-31T13:28:36;21.60;99.90
8002;DHT22;4046;48.774;8.732;2022-10-31T13:31:03;21.60;99.90
8002;DHT22;4046;48.774;8.732;2022-10-31T13:33:33;21.60;99.90
8002;DHT22;4046;48.774;8.732;2022-10-31T13:36:23;21.60;99.90
8002;DHT22;4046;48.774;8.732;2022-10-31T13:38:59;21.60;99.90
8002;DHT22;4046;48.774;8.732;2022-10-31T13:41:48;21.60;99.90
8002;DHT22;4046;48.774;8.732;2022-10-31T13:44:24;21.60;99.90
8002;DHT22;4046;48.774;8.732;2022-10-31T13:46:54;21.60;99.90
8002;DHT22;4046;48.774;8.732;2022-10-31T13:49:39;21.60;99.90
8002;DHT22;4046;48.774;8.732;2022-10-31T13:57:31;21.70;99.90
8002;DHT22;4046;48.774;8.732;2022-10-31T14:00:22;21.80;99.90
8002;DHT22;4046;48.774;8.732;2022-10-31T14:02:51;21.80;99.90
8002;DHT22;4046;48.774;8.732;2022-10-31T14:05:33;21.90;99.90
8002;DHT22;4046;48.774;8.732;2022-10-31T14:08:04;21.90;99.90
8002;DHT22;4046;48.774;8.732;2022-10-31T14:10:33;21.90;99.90
8002;DHT22;4046;48.774;8.732;2022-10-31T14:13:07;21.90;99.90
8002;DHT22;4046;48.774;8.732;2022-10-31T14:15:36;21.90;99.90
8002;DHT22;4046;48.774;8.732;2022-10-31T14:18:06;21.90;99.90
8002;DHT22;4046;48.774;8.732;2022-10-31T14:20:40;22.00;99.90
8002;DHT22;4046;48.774;8.732;2022-10-31T14:23:12;22.00;99.90
8002;DHT22;4046;48.774;8.732;2022-10-31T14:25:38;21.90;99.90
8002;DHT22;4046;48.774;8.732;2022-10-31T14:28:30;21.90;99.90
8002;DHT22;4046;48.774;8.732;2022-10-31T14:30:58;22.00;99.90
8002;DHT22;4046;48.774;8.732;2022-10-31T14:33:29;22.00;99.90
8002;DHT22;4046;48.774;8.732;2022-10-31T14:36:12;22.00;99.90
8002;DHT22;4046;48.774;8.732;2022-10-31T14:38:55;22.00;99.90
8002;DHT22;4046;48.774;8.732;2022-10-31T14:47:31;21.90;99.90
8002;DHT22;4046;48.774;8.732;2022-10-31T14:52:57;21.90;99.90
8002;DHT22;4046;48.774;8.732;2022-10-31T14:55:26;21.90;99.90
8002;DHT22;4046;48.774;8.732;2022-10-31T14:57:57;21.90;99.90
8002;DHT22;4046;48.774;8.732;2022-10-31T15:00:26;21.90;99.90
8002;DHT22;4046;48.774;8.732;2022-10-31T15:03:12;21.80;99.90
8002;DHT22;4046;48.774;8.732;2022-10-31T15:05:48;21.80;99.90
8002;DHT22;4046;48.774;8.732;2022-10-31T15:08:34;21.80;99.90
8002;DHT22;4046;48.774;8.732;2022-10-31T15:11:24;21.80;99.90
8002;DHT22;4046;48.774;8.732;2022-10-31T15:13:57;21.80;99.90
8002;DHT22;4046;48.774;8.732;2022-10-31T15:16:26;21.80;99.90
8002;DHT22;4046;48.774;8.732;2022-10-31T15:18:57;21.80;99.90
8002;DHT22;4046;48.774;8.732;2022-10-31T15:21:25;21.70;99.90
8002;DHT22;4046;48.774;8.732;2022-10-31T15:23:56;21.60;99.90
8002;DHT22;4046;48.774;8.732;2022-10-31T15:26:28;21.70;99.90
8002;DHT22;4046;48.774;8.732;2022-10-31T15:29:00;21.60;99.90
8002;DHT22;4046;48.774;8.732;2022-10-31T15:31:28;21.60;99.90
8002;DHT22;4046;48.774;8.732;2022-10-31T15:33:55;21.60;99.90
8002;DHT22;4046;48.774;8.732;2022-10-31T15:36:25;21.60;99.90
8002;DHT22;4046;48.774;8.732;2022-10-31T15:38:52;21.60;99.90
8002;DHT22;4046;48.774;8.732;2022-10-31T15:41:34;21.60;99.90
8002;DHT22;4046;48.774;8.732;2022-10-31T15:44:20;21.60;99.90
8002;DHT22;4046;48.774;8.732;2022-10-31T15:46:54;21.60;99.90
8002;DHT22;4046;48.774;8.732;2022-10-31T15:49:31;21.60;99.90
8002;DHT22;4046;48.774;8.732;2022-10-31T15:52:04;21.60;99.90
8002;DHT22;4046;48.774;8.732;2022-10-31T15:54:32;21.60;99.90
8002;DHT22;4046;48.774;8.732;2022-10-31T15:56:59;21.60;99.90
8002;DHT22;4046;48.774;8.732;2022-10-31T15:59:26;21.60;99.90
8002;DHT22;4046;48.774;8.732;2022-10-31T16:02:00;21.60;99.90
8002;DHT22;4046;48.774;8.732;2022-10-31T16:04:27;21.60;99.90
8002;DHT22;4046;48.774;8.732;2022-10-31T16:07:15;21.60;99.90
8002;DHT22;4046;48.774;8.732;2022-10-31T16:09:50;21.60;99.90
8002;DHT22;4046;48.774;8.732;2022-10-31T16:12:17;21.60;99.90
8002;DHT22;4046;48.774;8.732;2022-10-31T16:14:43;21.60;99.90
8002;DHT22;4046;48.774;8.732;2022-10-31T16:17:17;21.60;99.90
8002;DHT22;4046;48.774;8.732;2022-10-31T16:19:56;21.60;99.90
8002;DHT22;4046;48.774;8.732;2022-10-31T16:22:35;21.60;99.90
8002;DHT22;4046;48.774;8.732;2022-10-31T16:27:40;21.60;99.90
8002;DHT22;4046;48.774;8.732;2022-10-31T16:32:59;21.60;99.90
8002;DHT22;4046;48.774;8.732;2022-10-31T16:35:28;21.60;99.90
8002;DHT22;4046;48.774;8.732;2022-10-31T16:37:57;21.60;99.90
8002;DHT22;4046;48.774;8.732;2022-10-31T16:40:24;21.60;99.90
8002;DHT22;4046;48.774;8.732;2022-10-31T16:42:51;21.60;99.90
8002;DHT22;4046;48.774;8.732;2022-10-31T16:45:22;21.60;99.90
8002;DHT22;4046;48.774;8.732;2022-10-31T16:47:50;21.60;99.90
8002;DHT22;4046;48.774;8.732;2022-10-31T16:50:25;21.60;99.90
8002;DHT22;4046;48.774;8.732;2022-10-31T16:52:52;21.60;99.90
8002;DHT22;4046;48.774;8.732;2022-10-31T16:55:19;21.60;99.90
8002;DHT22;4046;48.774;8.732;2022-10-31T16:57:48;21.60;99.90
8002;DHT22;4046;48.774;8.732;2022-10-31T17:00:23;21.60;99.90
8002;DHT22;4046;48.774;8.732;2022-10-31T17:02:51;21.60;99.90
8002;DHT22;4046;48.774;8.732;2022-10-31T17:05:20;21.60;99.90
8002;DHT22;4046;48.774;8.732;2022-10-31T17:07:47;21.70;99.90
8002;DHT22;4046;48.774;8.732;2022-10-31T17:10:14;21.60;99.90
8002;DHT22;4046;48.774;8.732;2022-10-31T17:12:44;21.60;99.90
8002;DHT22;4046;48.774;8.732;2022-10-31T17:15:24;21.60;99.90
8002;DHT22;4046;48.774;8.732;2022-10-31T17:17:51;21.60;99.90
8002;DHT22;4046;48.774;8.732;2022-10-31T17:22:45;21.60;99.90
8002;DHT22;4046;48.774;8.732;2022-10-31T17:25:16;21.50;99.90
8002;DHT22;4046;48.774;8.732;2022-10-31T17:27:43;21.50;99.90
8002;DHT22;4046;48.774;8.732;2022-10-31T17:30:13;21.60;99.90
8002;DHT22;4046;48.774;8.732;2022-10-31T17:32:40;21.50;99.90
8002;DHT22;4046;48.774;8.732;2022-10-31T17:35:10;21.50;99.90
8002;DHT22;4046;48.774;8.732;2022-10-31T17:37:38;21.50;99.90
8002;DHT22;4046;48.774;8.732;2022-10-31T17:40:05;21.60;99.90
8002;DHT22;4046;48.774;8.732;2022-10-31T17:42:31;21.50;99.90
8002;DHT22;4046;48.774;8.732;2022-10-31T17:44:58;21.60;99.90
8002;DHT22;4046;48.774;8.732;2022-10-31T17:47:24;21.50;99.90
8002;DHT22;4046;48.774;8.732;2022-10-31T17:49:50;21.50;99.90
8002;DHT22;4046;48.774;8.732;2022-10-31T17:52:18;21.50;99.90
8002;DHT22;4046;48.774;8.732;2022-10-31T17:54:45;21.50;99.90
8002;DHT22;4046;48.774;8.732;2022-10-31T17:57:11;21.50;99.90
8002;DHT22;4046;48.774;8.732;2022-10-31T17:59:37;21.50;99.90
8002;DHT22;4046;48.774;8.732;2022-10-31T18:02:03;21.50;99.90
8002;DHT22;4046;48.774;8.732;2022-10-31T18:04:34;21.50;99.90
8002;DHT22;4046;48.774;8.732;2022-10-31T18:07:00;21.50;99.90
8002;DHT22;4046;48.774;8.732;2022-10-31T18:09:27;21.50;99.90
8002;DHT22;4046;48.774;8.732;2022-10-31T18:11:53;21.50;99.90